Time;durP1;ratioP1;P1;durP2;ratioP2;P2;SDS_P1;SDS_P2;PMS_P1;PMS_P2;Temp;Humidity;BMP_temperature;BMP_pressure;BME280_temperature;BME280_humidity;BME280_pressure;Samples;Min_cycle;Max_cycle;Signal;HPM_P1;HPM_P2
2022/05/07 00:00:22;;;;;;;49.67;33.92;;;13.80;99.90;;;;;;5009385;28;20128;-67
2022/05/07 00:02:50;;;;;;;52.50;34.47;;;13.80;99.90;;;;;;5009173;28;20076;-67
2022/05/07 00:05:18;;;;;;;50.60;33.72;;;13.80;99.90;;;;;;5009426;28;20042;-66
2022/05/07 00:07:43;;;;;;;55.17;35.30;;;13.80;99.90;;;;;;4976358;28;20054;-67
2022/05/07 00:10:09;;;;;;;51.13;34.13;;;13.90;99.90;;;;;;5008872;28;20041;-67
2022/05/07 00:12:35;;;;;;;49.60;32.85;;;13.90;99.90;;;;;;5009139;28;20418;-67
2022/05/07 00:15:00;;;;;;;54.42;33.65;;;13.90;99.90;;;;;;4991178;28;20364;-67
2022/05/07 00:20:10;;;;;;;53.20;33.05;;;13.90;99.90;;;;;;5009168;28;20046;-67
2022/05/07 00:22:36;;;;;;;47.90;32.15;;;13.90;99.90;;;;;;5008765;28;20050;-67
2022/05/07 00:25:03;;;;;;;51.05;32.30;;;13.90;99.90;;;;;;4974774;28;20168;-67
2022/05/07 00:27:28;;;;;;;55.72;33.80;;;13.90;99.90;;;;;;4991474;28;20147;-67
2022/05/07 00:29:54;;;;;;;50.10;31.83;;;14.20;99.90;;;;;;5008886;28;20085;-67
2022/05/07 00:32:19;;;;;;;52.92;32.47;;;13.90;99.90;;;;;;4991665;28;20136;-66
2022/05/07 00:34:45;;;;;;;50.67;32.70;;;14.00;99.90;;;;;;5008883;28;20046;-66
2022/05/07 00:37:11;;;;;;;53.33;33.17;;;14.00;99.90;;;;;;5008396;28;20038;-66
2022/05/07 00:39:36;;;;;;;53.15;32.42;;;14.00;99.90;;;;;;5009021;28;20054;-66
2022/05/07 00:42:06;;;;;;;54.20;32.88;;;14.00;99.90;;;;;;5008769;28;20474;-66
2022/05/07 00:44:33;;;;;;;54.83;32.30;;;14.00;99.90;;;;;;5008413;28;20101;-66
2022/05/07 00:47:15;;;;;;;51.08;32.30;;;14.00;99.90;;;;;;5008301;28;20517;-66
2022/05/07 00:49:46;;;;;;;51.25;31.83;;;14.00;99.90;;;;;;5008557;28;20048;-66
2022/05/07 00:52:13;;;;;;;53.28;31.77;;;14.00;99.90;;;;;;5008207;28;20052;-66
2022/05/07 00:54:39;;;;;;;49.17;32.65;;;14.10;99.90;;;;;;4974307;28;20050;-66
2022/05/07 00:57:05;;;;;;;50.80;32.50;;;14.10;99.90;;;;;;4991112;28;20103;-66
2022/05/07 00:59:31;;;;;;;54.00;32.58;;;14.00;99.90;;;;;;5007828;28;20038;-66
2022/05/07 01:01:57;;;;;;;50.60;32.20;;;14.00;99.90;;;;;;5008485;28;20050;-66
2022/05/07 01:04:22;;;;;;;51.72;33.03;;;14.00;99.90;;;;;;5002222;28;20627;-66
2022/05/07 01:06:48;;;;;;;50.70;32.67;;;14.00;99.90;;;;;;5008025;28;20041;-66
2022/05/07 01:09:14;;;;;;;49.85;32.33;;;14.00;99.90;;;;;;4974304;28;20077;-66
2022/05/07 01:11:41;;;;;;;50.88;34.00;;;14.10;99.90;;;;;;5008728;28;20088;-66
2022/05/07 01:14:07;;;;;;;53.53;33.33;;;14.00;99.90;;;;;;4989333;28;20048;-66
2022/05/07 01:16:32;;;;;;;52.17;32.60;;;14.00;99.90;;;;;;4991207;28;20429;-66
2022/05/07 01:18:58;;;;;;;47.00;33.38;;;14.00;99.90;;;;;;4990658;28;20482;-66
2022/05/07 01:21:24;;;;;;;53.92;32.53;;;14.00;99.90;;;;;;5007760;28;20038;-66
2022/05/07 01:23:49;;;;;;;56.33;33.20;;;14.00;99.90;;;;;;5008408;28;20073;-66
2022/05/07 01:26:20;;;;;;;46.13;31.40;;;14.00;99.90;;;;;;5006944;28;20045;-66
2022/05/07 01:28:46;;;;;;;43.10;30.80;;;13.90;99.90;;;;;;4991273;28;20062;-66
2022/05/07 01:31:12;;;;;;;52.08;32.53;;;13.90;99.90;;;;;;5007674;28;20477;-66
2022/05/07 01:33:38;;;;;;;50.60;30.70;;;14.50;99.90;;;;;;4993217;28;20088;-66
2022/05/07 01:36:13;;;;;;;47.80;31.38;;;13.80;99.90;;;;;;5008949;28;20052;-66
2022/05/07 01:38:38;;;;;;;51.28;33.22;;;13.90;99.90;;;;;;5008527;28;20050;-65
2022/05/07 01:41:04;;;;;;;52.38;31.83;;;13.90;99.90;;;;;;5006413;28;20127;-66
2022/05/07 01:43:33;;;;;;;51.63;31.75;;;13.90;99.90;;;;;;5008157;28;20115;-66
2022/05/07 01:45:59;;;;;;;57.92;32.00;;;13.90;99.90;;;;;;5008298;28;20045;-66
2022/05/07 01:48:26;;;;;;;47.40;31.13;;;13.90;99.90;;;;;;5007138;28;20060;-66
2022/05/07 01:50:51;;;;;;;48.63;30.90;;;14.00;99.90;;;;;;5008078;28;20054;-66
2022/05/07 01:53:17;;;;;;;50.25;30.98;;;13.90;99.90;;;;;;5007318;28;20057;-66
2022/05/07 01:55:46;;;;;;;49.63;31.50;;;13.90;99.90;;;;;;5008380;28;20034;-66
2022/05/07 01:58:12;;;;;;;50.90;31.83;;;13.90;99.90;;;;;;5006688;28;20060;-66
2022/05/07 02:00:41;;;;;;;46.45;30.17;;;13.90;99.90;;;;;;5008376;28;20042;-66
2022/05/07 02:03:07;;;;;;;47.83;31.52;;;13.80;99.90;;;;;;4974534;28;20486;-66
2022/05/07 02:05:33;;;;;;;49.50;31.58;;;13.90;99.90;;;;;;4991773;28;20557;-66
2022/05/07 02:07:59;;;;;;;50.45;31.60;;;13.80;99.90;;;;;;4989993;28;20113;-66
2022/05/07 02:10:25;;;;;;;53.88;31.73;;;13.90;99.90;;;;;;5007480;28;20042;-66
2022/05/07 02:12:51;;;;;;;47.53;31.05;;;13.90;99.90;;;;;;4990479;28;20453;-66
2022/05/07 02:15:17;;;;;;;49.58;30.80;;;13.90;99.90;;;;;;5007015;28;20038;-66
2022/05/07 02:17:43;;;;;;;47.60;30.92;;;13.90;99.90;;;;;;5008240;28;20045;-66
2022/05/07 02:20:09;;;;;;;50.00;31.52;;;13.90;99.90;;;;;;5006713;28;20088;-67
2022/05/07 02:22:35;;;;;;;47.25;30.65;;;13.90;99.90;;;;;;4990485;28;20064;-67
2022/05/07 02:25:00;;;;;;;49.13;31.63;;;13.90;99.90;;;;;;4991378;28;20046;-66
2022/05/07 02:27:26;;;;;;;48.38;31.58;;;14.70;99.90;;;;;;5007322;28;20474;-67
2022/05/07 02:29:52;;;;;;;47.00;31.08;;;13.90;99.90;;;;;;5007410;28;20044;-67
2022/05/07 02:32:18;;;;;;;46.22;31.45;;;13.90;99.90;;;;;;5007067;28;20088;-66
2022/05/07 02:34:44;;;;;;;48.13;30.90;;;13.90;99.90;;;;;;5008063;28;20371;-67
2022/05/07 02:37:10;;;;;;;50.78;30.48;;;13.90;99.90;;;;;;5006703;28;20096;-66
2022/05/07 02:39:36;;;;;;;43.45;29.48;;;13.90;99.90;;;;;;5006735;28;20099;-67
2022/05/07 02:44:47;;;;;;;45.47;30.88;;;13.90;99.90;;;;;;5005354;28;20046;-66
2022/05/07 02:47:12;;;;;;;41.75;30.17;;;13.90;99.90;;;;;;4990843;28;20121;-67
2022/05/07 02:49:38;;;;;;;47.17;31.25;;;13.90;99.90;;;;;;5012374;28;20129;-67
2022/05/07 02:52:04;;;;;;;47.92;30.38;;;15.10;99.90;;;;;;5010702;28;20042;-67
2022/05/07 02:54:30;;;;;;;41.92;29.67;;;13.90;99.90;;;;;;4992727;28;20076;-67
2022/05/07 02:56:56;;;;;;;44.63;30.52;;;14.00;99.90;;;;;;5011197;28;20429;-67
2022/05/07 02:59:22;;;;;;;44.83;28.90;;;13.90;99.90;;;;;;5008720;28;20069;-67
2022/05/07 03:01:48;;;;;;;41.05;28.77;;;14.30;99.90;;;;;;5011199;28;20046;-67
2022/05/07 03:04:13;;;;;;;47.72;30.30;;;13.90;99.90;;;;;;4974439;28;20456;-67
2022/05/07 03:06:39;;;;;;;43.15;30.05;;;13.80;99.90;;;;;;5009385;28;20173;-67
2022/05/07 03:09:05;;;;;;;43.28;30.05;;;13.80;99.90;;;;;;5010471;28;20092;-67
2022/05/07 03:11:33;;;;;;;41.10;29.80;;;13.80;99.90;;;;;;5009739;28;20572;-67
2022/05/07 03:14:02;;;;;;;40.92;28.58;;;13.80;99.90;;;;;;4981975;28;20057;-67
2022/05/07 03:16:30;;;;;;;42.60;30.33;;;13.80;99.90;;;;;;4991139;28;20101;-67
2022/05/07 03:18:55;;;;;;;39.97;28.13;;;13.70;99.90;;;;;;4990886;28;20061;-66
2022/05/07 03:21:21;;;;;;;39.40;29.13;;;14.50;99.90;;;;;;4989740;28;20517;-67
2022/05/07 03:23:46;;;;;;;40.80;28.27;;;13.80;99.90;;;;;;5010882;28;20049;-67
2022/05/07 03:26:13;;;;;;;36.15;27.52;;;13.80;99.90;;;;;;5009971;28;20355;-67
2022/05/07 03:28:39;;;;;;;38.92;26.40;;;13.80;99.90;;;;;;5010357;28;20038;-67
2022/05/07 03:31:05;;;;;;;39.08;27.85;;;13.80;99.90;;;;;;5010618;28;20056;-67
2022/05/07 03:33:31;;;;;;;40.35;26.33;;;13.70;99.90;;;;;;5009233;28;20413;-66
2022/05/07 03:35:57;;;;;;;41.60;26.77;;;13.70;99.90;;;;;;5010263;28;20057;-65
2022/05/07 03:38:22;;;;;;;35.75;25.63;;;13.70;99.90;;;;;;5009649;28;20151;-68
2022/05/07 03:40:48;;;;;;;39.38;26.50;;;13.70;99.90;;;;;;4992567;28;20379;-66
2022/05/07 03:43:15;;;;;;;35.72;26.75;;;13.70;99.90;;;;;;5009359;28;20052;-66
2022/05/07 03:45:40;;;;;;;41.35;26.98;;;13.70;99.90;;;;;;5010249;28;20041;-65
2022/05/07 03:48:07;;;;;;;37.50;25.85;;;13.70;99.90;;;;;;5008960;28;20550;-65
2022/05/07 03:50:32;;;;;;;37.13;26.95;;;13.70;99.90;;;;;;4992541;28;20046;-66
2022/05/07 03:55:43;;;;;;;36.85;27.15;;;13.70;99.90;;;;;;5009527;28;20128;-66
2022/05/07 03:58:15;;;;;;;38.47;28.50;;;13.70;99.90;;;;;;4992104;28;20126;-66
2022/05/07 04:00:41;;;;;;;40.75;28.10;;;13.70;99.90;;;;;;5008816;28;20050;-66
2022/05/07 04:03:06;;;;;;;37.70;28.30;;;13.70;99.90;;;;;;4982815;28;20057;-66
2022/05/07 04:05:32;;;;;;;39.58;28.55;;;13.60;99.90;;;;;;4975436;28;21445;-66
2022/05/07 04:07:57;;;;;;;38.28;28.63;;;13.60;99.90;;;;;;5009229;28;20521;-66
2022/05/07 04:10:23;;;;;;;40.55;28.60;;;13.60;99.90;;;;;;5009897;28;20034;-67
2022/05/07 04:12:51;;;;;;;41.10;28.52;;;13.30;99.90;;;;;;5009022;28;20411;-66
2022/05/07 04:15:17;;;;;;;38.30;28.45;;;13.60;99.90;;;;;;5009104;28;20099;-66
2022/05/07 04:17:43;;;;;;;36.88;27.75;;;13.60;99.90;;;;;;5008758;28;20395;-66
2022/05/07 04:20:09;;;;;;;38.45;28.20;;;13.60;99.90;;;;;;5009125;28;20030;-66
2022/05/07 04:22:35;;;;;;;37.78;28.65;;;13.60;99.90;;;;;;4990683;28;20045;-66
2022/05/07 04:25:05;;;;;;;34.42;26.50;;;13.60;99.90;;;;;;5010009;28;20045;-66
2022/05/07 04:27:31;;;;;;;35.42;27.25;;;13.60;99.90;;;;;;5008493;28;20041;-66
2022/05/07 04:29:57;;;;;;;35.13;27.02;;;13.60;99.90;;;;;;5009385;28;20064;-66
2022/05/07 04:32:24;;;;;;;37.67;28.30;;;13.60;99.90;;;;;;5011590;28;20524;-66
2022/05/07 04:34:49;;;;;;;35.97;27.67;;;13.70;99.90;;;;;;5002326;28;20387;-66
2022/05/07 04:37:15;;;;;;;37.17;26.23;;;13.70;99.90;;;;;;4999407;28;20041;-66
2022/05/07 04:39:41;;;;;;;33.60;25.60;;;13.70;99.90;;;;;;4993556;28;20490;-66
2022/05/07 04:42:06;;;;;;;34.08;26.23;;;13.70;99.90;;;;;;4989082;28;20070;-66
2022/05/07 04:44:32;;;;;;;33.80;26.88;;;13.70;99.90;;;;;;4970616;28;20054;-66
2022/05/07 04:46:58;;;;;;;38.95;27.08;;;13.70;99.90;;;;;;4991596;28;20053;-66
2022/05/07 04:49:24;;;;;;;32.70;25.85;;;13.70;99.90;;;;;;4990470;28;20042;-66
2022/05/07 04:51:50;;;;;;;34.45;25.63;;;13.70;99.90;;;;;;4991108;28;20038;-66
2022/05/07 04:54:20;;;;;;;33.30;25.92;;;13.80;99.90;;;;;;4974265;28;20074;-66
2022/05/07 04:56:46;;;;;;;33.63;25.35;;;13.80;99.90;;;;;;4991192;28;20096;-66
2022/05/07 04:59:15;;;;;;;34.85;26.10;;;13.80;99.90;;;;;;4997324;28;20046;-67
2022/05/07 05:01:41;;;;;;;33.13;25.23;;;13.80;99.90;;;;;;4989876;28;20043;-66
2022/05/07 05:04:07;;;;;;;32.70;25.75;;;13.90;99.90;;;;;;4970495;28;20042;-66
2022/05/07 05:06:33;;;;;;;36.78;25.77;;;13.90;99.90;;;;;;4989523;28;20047;-66
2022/05/07 05:08:58;;;;;;;33.17;25.02;;;13.90;99.90;;;;;;4955681;28;20077;-66
2022/05/07 05:11:25;;;;;;;33.55;25.38;;;13.90;99.90;;;;;;5000468;28;20121;-66
2022/05/07 05:13:51;;;;;;;32.75;25.08;;;13.90;99.90;;;;;;4990795;28;20062;-67
2022/05/07 05:16:16;;;;;;;31.95;25.27;;;13.90;99.90;;;;;;4969015;28;20051;-66
2022/05/07 05:18:42;;;;;;;33.10;25.05;;;13.90;99.90;;;;;;4952010;28;20049;-66
2022/05/07 05:21:11;;;;;;;36.00;26.00;;;14.00;99.90;;;;;;4969116;28;20038;-66
2022/05/07 05:23:36;;;;;;;34.25;25.48;;;13.90;99.90;;;;;;4969604;28;20045;-66
2022/05/07 05:26:02;;;;;;;33.67;23.88;;;14.00;99.90;;;;;;4951254;28;20395;-66
2022/05/07 05:28:28;;;;;;;31.73;24.25;;;14.60;99.90;;;;;;4969169;28;20140;-66
2022/05/07 05:30:53;;;;;;;33.33;23.75;;;14.00;99.90;;;;;;4970206;28;20042;-66
2022/05/07 05:33:20;;;;;;;33.10;24.98;;;14.00;99.90;;;;;;4968228;28;20507;-66
2022/05/07 05:35:46;;;;;;;32.45;24.70;;;14.10;99.90;;;;;;4985070;28;20065;-66
2022/05/07 05:38:11;;;;;;;30.27;24.80;;;14.10;99.90;;;;;;4989662;28;20502;-66
2022/05/07 05:40:37;;;;;;;34.47;25.27;;;14.20;99.90;;;;;;5008297;28;20049;-66
2022/05/07 05:43:02;;;;;;;33.20;24.90;;;14.20;99.90;;;;;;5003260;28;20048;-66
2022/05/07 05:45:28;;;;;;;34.03;25.98;;;14.30;99.90;;;;;;5007945;28;20057;-66
2022/05/07 05:47:54;;;;;;;36.03;25.35;;;14.30;99.90;;;;;;5008308;28;20041;-66
2022/05/07 05:50:20;;;;;;;31.95;25.05;;;14.40;99.90;;;;;;4991563;28;20040;-66
2022/05/07 05:52:46;;;;;;;32.90;25.58;;;14.30;99.90;;;;;;5007255;28;20556;-66
2022/05/07 05:55:11;;;;;;;32.30;25.25;;;14.50;99.90;;;;;;5007449;28;20045;-66
2022/05/07 05:57:37;;;;;;;33.03;25.90;;;14.50;99.90;;;;;;5006581;28;20501;-66
2022/05/07 06:00:09;;;;;;;35.97;26.98;;;14.50;99.90;;;;;;5016000;28;20339;-66
2022/05/07 06:02:35;;;;;;;32.63;25.63;;;14.60;99.90;;;;;;5015836;28;20538;-67
2022/05/07 06:05:00;;;;;;;31.88;26.48;;;14.60;99.90;;;;;;4974270;28;20042;-66
2022/05/07 06:07:26;;;;;;;33.97;25.75;;;14.60;99.90;;;;;;5007794;28;20042;-66
2022/05/07 06:09:51;;;;;;;32.42;25.80;;;14.70;99.90;;;;;;5008109;28;20140;-66
2022/05/07 06:12:17;;;;;;;36.00;27.20;;;14.80;99.90;;;;;;5007461;28;20049;-66
2022/05/07 06:14:43;;;;;;;36.50;28.42;;;14.80;99.90;;;;;;5008645;28;20042;-66
2022/05/07 06:17:08;;;;;;;34.00;26.50;;;14.90;99.90;;;;;;5008192;28;20050;-66
2022/05/07 06:19:34;;;;;;;36.55;27.48;;;15.90;99.90;;;;;;5007865;28;20091;-66
2022/05/07 06:22:00;;;;;;;34.58;26.73;;;15.90;99.90;;;;;;5008875;28;20077;-66
2022/05/07 06:27:28;;;;;;;37.55;26.90;;;15.20;99.90;;;;;;5010662;28;20093;-66
2022/05/07 06:30:04;;;;;;;32.45;25.05;;;15.20;99.90;;;;;;5011432;28;20041;-66
2022/05/07 06:32:42;;;;;;;30.50;23.67;;;15.30;99.90;;;;;;5011679;28;20108;-66
2022/05/07 06:35:09;;;;;;;31.88;23.88;;;15.40;99.90;;;;;;5000876;28;20034;-66
2022/05/07 06:37:37;;;;;;;33.13;25.08;;;15.50;99.90;;;;;;4991099;28;20136;-67
2022/05/07 06:40:05;;;;;;;30.33;23.35;;;15.60;99.90;;;;;;5005492;28;20046;-66
2022/05/07 06:42:33;;;;;;;28.67;22.65;;;15.70;99.90;;;;;;5008886;28;20077;-66
2022/05/07 06:44:59;;;;;;;29.67;22.55;;;15.80;99.90;;;;;;5011262;28;20124;-66
2022/05/07 06:47:26;;;;;;;28.90;23.02;;;15.80;99.90;;;;;;5010888;28;20129;-66
2022/05/07 06:49:51;;;;;;;29.98;20.85;;;15.90;99.90;;;;;;4992718;28;20046;-67
2022/05/07 06:52:18;;;;;;;28.17;21.58;;;15.90;99.90;;;;;;5011005;28;20100;-67
2022/05/07 06:54:44;;;;;;;26.05;21.20;;;16.00;99.90;;;;;;5011021;28;20065;-67
2022/05/07 06:57:10;;;;;;;29.05;22.63;;;16.20;99.90;;;;;;5009587;28;20120;-67
2022/05/07 06:59:36;;;;;;;29.05;21.48;;;16.60;99.90;;;;;;5010834;28;20085;-67
2022/05/07 07:02:02;;;;;;;28.85;22.73;;;16.30;99.90;;;;;;5010625;28;20053;-67
2022/05/07 07:04:28;;;;;;;29.45;21.83;;;16.40;99.90;;;;;;5009136;28;20084;-67
2022/05/07 07:06:54;;;;;;;27.17;21.58;;;16.60;99.90;;;;;;5011040;28;20081;-67
2022/05/07 07:09:20;;;;;;;24.70;19.45;;;16.70;99.90;;;;;;5010083;28;20053;-66
2022/05/07 07:11:45;;;;;;;26.90;20.63;;;16.80;99.90;;;;;;5009566;28;20125;-67
2022/05/07 07:14:12;;;;;;;23.70;19.27;;;16.90;99.90;;;;;;5013780;28;20081;-67
2022/05/07 07:16:37;;;;;;;23.65;17.90;;;17.10;99.90;;;;;;5011071;28;20058;-67
2022/05/07 07:19:04;;;;;;;21.83;17.45;;;17.30;99.90;;;;;;5010794;28;20069;-67
2022/05/07 07:21:30;;;;;;;23.15;18.55;;;17.50;99.90;;;;;;5010935;28;20089;-66
2022/05/07 07:23:55;;;;;;;21.73;18.30;;;17.50;99.90;;;;;;5006362;28;20081;-67
2022/05/07 07:26:22;;;;;;;23.40;18.88;;;17.50;99.90;;;;;;4991642;28;20505;-67
2022/05/07 07:28:47;;;;;;;21.92;18.65;;;17.60;99.90;;;;;;5012365;28;20084;-67
2022/05/07 07:31:13;;;;;;;22.95;19.02;;;17.70;99.90;;;;;;5009224;28;20081;-67
2022/05/07 07:33:41;;;;;;;23.77;18.23;;;17.80;99.90;;;;;;4992167;28;20053;-66
2022/05/07 07:36:08;;;;;;;21.90;18.60;;;18.00;99.90;;;;;;4992238;28;20081;-66
2022/05/07 07:38:35;;;;;;;22.20;17.63;;;18.10;99.90;;;;;;5008860;28;20152;-66
2022/05/07 07:41:02;;;;;;;25.88;17.90;;;18.30;99.90;;;;;;5010116;28;20057;-66
2022/05/07 07:43:28;;;;;;;23.60;18.10;;;19.20;99.90;;;;;;5008305;28;20121;-66
2022/05/07 07:48:39;;;;;;;26.05;18.08;;;18.50;99.90;;;;;;5010294;28;20053;-66
2022/05/07 07:51:06;;;;;;;23.05;18.60;;;18.50;99.90;;;;;;5008991;28;20487;-67
2022/05/07 07:53:32;;;;;;;22.63;18.52;;;18.70;99.90;;;;;;4993087;28;20062;-66
2022/05/07 07:55:58;;;;;;;23.45;17.85;;;18.90;99.90;;;;;;4973028;28;20391;-66
2022/05/07 07:58:25;;;;;;;23.35;19.15;;;19.00;99.90;;;;;;4987626;28;20050;-66
2022/05/07 08:00:50;;;;;;;24.52;19.20;;;19.20;99.90;;;;;;5010492;28;20046;-67
2022/05/07 08:03:19;;;;;;;22.77;19.25;;;19.30;99.90;;;;;;5009374;28;20041;-66
2022/05/07 08:05:46;;;;;;;25.40;19.15;;;19.30;99.90;;;;;;4991452;28;20577;-66
2022/05/07 08:13:44;;;;;;;23.33;19.92;;;19.00;99.90;;;;;;5006263;28;20045;-67
2022/05/07 08:16:11;;;;;;;27.83;20.73;;;18.80;99.90;;;;;;5009267;28;20056;-66
2022/05/07 08:18:38;;;;;;;27.65;21.88;;;18.80;99.90;;;;;;4991696;28;20502;-67
2022/05/07 08:21:06;;;;;;;28.73;21.48;;;18.70;99.90;;;;;;5008829;28;20094;-66
2022/05/07 08:23:31;;;;;;;31.70;23.83;;;18.50;99.90;;;;;;4991084;28;20494;-66
2022/05/07 08:25:57;;;;;;;31.88;24.50;;;18.50;99.90;;;;;;5009264;28;20129;-66
2022/05/07 08:28:24;;;;;;;34.60;25.00;;;18.50;99.90;;;;;;5007969;28;20034;-67
2022/05/07 08:30:50;;;;;;;32.05;24.38;;;18.50;99.90;;;;;;5009668;28;20046;-67
2022/05/07 08:33:19;;;;;;;34.08;24.67;;;18.60;99.90;;;;;;5008436;28;20389;-66
2022/05/07 08:35:45;;;;;;;35.17;26.88;;;18.40;99.90;;;;;;5009250;28;20049;-66
2022/05/07 08:38:10;;;;;;;34.20;24.92;;;18.40;99.90;;;;;;5006999;28;20144;-68
2022/05/07 08:40:40;;;;;;;30.95;23.73;;;18.40;99.90;;;;;;5008466;28;20045;-68
2022/05/07 08:43:06;;;;;;;35.72;26.92;;;18.30;99.90;;;;;;5007993;28;20054;-68
2022/05/07 08:45:32;;;;;;;39.92;26.77;;;18.20;99.90;;;;;;4970807;28;20437;-67
2022/05/07 08:47:59;;;;;;;38.58;28.05;;;18.10;99.90;;;;;;5004867;28;20049;-67
2022/05/07 08:50:26;;;;;;;39.03;27.95;;;18.20;99.90;;;;;;5007605;28;20079;-68
2022/05/07 08:52:52;;;;;;;37.65;27.05;;;18.20;99.90;;;;;;4986992;28;20417;-68
2022/05/07 08:55:19;;;;;;;41.33;27.05;;;18.20;99.90;;;;;;5004119;28;20054;-68
2022/05/07 08:57:48;;;;;;;36.20;26.70;;;18.30;99.90;;;;;;5003590;28;20563;-68
2022/05/07 09:00:15;;;;;;;36.40;27.67;;;18.30;99.90;;;;;;5005360;28;20113;-69
2022/05/07 09:02:42;;;;;;;40.55;29.05;;;18.20;99.90;;;;;;5004078;28;20096;-68
2022/05/07 09:05:13;;;;;;;39.90;27.67;;;18.20;99.90;;;;;;5005183;28;20050;-69
2022/05/07 09:07:41;;;;;;;37.67;28.33;;;18.20;99.90;;;;;;5003694;28;20475;-68
2022/05/07 09:10:13;;;;;;;38.92;27.70;;;18.20;99.90;;;;;;5004699;28;20116;-68
2022/05/07 09:12:39;;;;;;;39.78;26.85;;;18.20;99.90;;;;;;5003982;28;20073;-68
2022/05/07 09:15:08;;;;;;;36.63;26.33;;;18.20;99.90;;;;;;5005488;28;20088;-68
2022/05/07 09:17:36;;;;;;;33.88;24.65;;;18.20;99.90;;;;;;4986039;28;20448;-68
2022/05/07 09:20:14;;;;;;;35.75;23.77;;;18.20;99.90;;;;;;5004691;28;20050;-69
2022/05/07 09:22:54;;;;;;;30.83;23.27;;;18.10;99.90;;;;;;5005271;28;20100;-68
2022/05/07 09:25:24;;;;;;;27.88;22.30;;;18.20;99.90;;;;;;5006665;28;20447;-68
2022/05/07 09:27:51;;;;;;;28.70;21.85;;;18.30;99.90;;;;;;5006143;28;20049;-69
2022/05/07 09:30:23;;;;;;;26.33;21.00;;;18.40;99.90;;;;;;5006805;28;20041;-68
2022/05/07 09:32:51;;;;;;;32.00;21.67;;;18.30;99.90;;;;;;5006887;28;20038;-68
2022/05/07 09:38:04;;;;;;;33.05;22.42;;;18.40;99.90;;;;;;5016971;28;20053;-68
2022/05/07 09:40:32;;;;;;;31.33;23.08;;;18.50;99.90;;;;;;5005976;28;20038;-68
2022/05/07 09:42:57;;;;;;;31.55;23.15;;;18.50;99.90;;;;;;5007906;28;20057;-68
2022/05/07 09:45:26;;;;;;;30.75;22.48;;;18.50;99.90;;;;;;5007068;28;20044;-68
2022/05/07 09:47:53;;;;;;;30.45;22.33;;;18.60;99.90;;;;;;5008086;28;20056;-68
2022/05/07 09:51:04;;;;;;;32.33;22.90;;;18.90;99.90;;;;;;4990101;28;20054;-68
2022/05/07 09:58:46;;;;;;;34.97;24.92;;;19.10;99.90;;;;;;5010818;28;20062;-68
2022/05/07 10:01:21;;;;;;;35.80;24.48;;;19.10;99.90;;;;;;5011518;28;20042;-69
2022/05/07 10:03:55;;;;;;;38.53;26.20;;;19.20;99.90;;;;;;5009447;28;20165;-69
2022/05/07 10:06:35;;;;;;;34.97;26.00;;;19.20;99.90;;;;;;5010943;28;20125;-68
2022/05/07 10:09:34;;;;;;;36.85;25.92;;;19.60;99.90;;;;;;5013779;28;20061;-69
2022/05/07 10:12:00;;;;;;;33.35;22.77;;;19.40;99.90;;;;;;5010575;28;20503;-68
2022/05/07 10:14:27;;;;;;;32.30;23.35;;;19.60;99.90;;;;;;4989215;28;20046;-68
2022/05/07 10:17:11;;;;;;;32.20;22.55;;;19.60;99.90;;;;;;4994426;28;20045;-68
2022/05/07 10:19:44;;;;;;;32.45;22.75;;;19.90;99.90;;;;;;5011769;28;20454;-69
2022/05/07 10:22:16;;;;;;;32.53;21.67;;;20.00;99.90;;;;;;5011575;28;20474;-69
2022/05/07 10:24:42;;;;;;;34.72;23.25;;;20.30;99.90;;;;;;4993421;28;20073;-68
2022/05/07 10:27:21;;;;;;;34.80;23.42;;;20.70;99.90;;;;;;5010568;28;20129;-68
2022/05/07 10:29:47;;;;;;;36.70;24.85;;;20.20;99.90;;;;;;5011602;28;20045;-68
2022/05/07 10:32:18;;;;;;;31.75;23.45;;;20.10;99.90;;;;;;5010458;28;20049;-68
2022/05/07 10:34:52;;;;;;;35.13;24.00;;;20.10;99.90;;;;;;5010132;28;20046;-68
2022/05/07 10:37:18;;;;;;;34.40;23.90;;;19.90;99.90;;;;;;5008021;28;20501;-69
2022/05/07 10:39:54;;;;;;;33.88;23.88;;;19.80;99.90;;;;;;5010564;28;20503;-68
2022/05/07 10:42:21;;;;;;;;;;;19.70;99.90;;;;;;4991391;28;20050;-69
2022/05/07 10:44:48;;;;;;;37.35;25.80;;;19.60;99.90;;;;;;5007315;28;20318;-68
2022/05/07 10:47:18;;;;;;;42.85;26.92;;;19.30;99.90;;;;;;4988547;28;20072;-68
2022/05/07 10:50:12;;;;;;;38.47;26.27;;;19.20;99.90;;;;;;5006379;28;20048;-69
2022/05/07 10:52:37;;;;;;;38.78;27.50;;;19.10;99.90;;;;;;5008660;28;20108;-69
2022/05/07 10:55:08;;;;;;;41.00;28.35;;;19.20;99.90;;;;;;5006868;28;20046;-69
2022/05/07 10:57:44;;;;;;;40.30;27.38;;;18.80;99.90;;;;;;4988953;28;20058;-69
2022/05/07 11:00:16;;;;;;;41.10;27.85;;;18.70;99.90;;;;;;4989417;28;20054;-69
2022/05/07 11:02:43;;;;;;;39.42;26.17;;;18.60;99.90;;;;;;5006973;28;20491;-69
2022/05/07 11:05:11;;;;;;;36.92;26.25;;;18.50;99.90;;;;;;4989209;28;20058;-68
2022/05/07 11:07:38;;;;;;;33.65;23.50;;;18.50;99.90;;;;;;4988948;28;20451;-67
2022/05/07 11:10:04;;;;;;;33.15;23.80;;;18.40;99.90;;;;;;5006104;28;20053;-67
2022/05/07 11:12:30;;;;;;;32.10;22.42;;;18.40;99.90;;;;;;4989956;28;20041;-65
2022/05/07 11:14:56;;;;;;;32.53;22.58;;;18.40;99.90;;;;;;5010071;28;20068;-66
2022/05/07 11:17:29;;;;;;;31.38;21.58;;;18.30;99.90;;;;;;5008598;28;20042;-66
2022/05/07 11:19:55;;;;;;;31.52;21.00;;;18.30;99.90;;;;;;4991722;28;20049;-68
2022/05/07 11:22:24;;;;;;;30.42;20.55;;;18.40;99.90;;;;;;5005670;28;20422;-67
2022/05/07 11:24:56;;;;;;;26.52;19.60;;;18.50;99.90;;;;;;4990423;28;20068;-67
2022/05/07 11:27:22;;;;;;;27.48;18.58;;;18.50;99.90;;;;;;4990222;28;20061;-66
2022/05/07 11:29:47;;;;;;;23.45;16.55;;;19.20;99.90;;;;;;4990177;28;20042;-66
2022/05/07 11:32:13;;;;;;;23.17;16.35;;;18.50;99.90;;;;;;4990666;28;20537;-66
2022/05/07 11:34:40;;;;;;;22.10;14.90;;;18.40;99.90;;;;;;4974619;28;20517;-67
2022/05/07 11:37:20;;;;;;;19.60;14.82;;;18.40;99.90;;;;;;4989531;28;20078;-66
2022/05/07 11:39:46;;;;;;;20.10;14.32;;;18.40;99.90;;;;;;4989918;28;20137;-67
2022/05/07 11:42:11;;;;;;;18.23;13.55;;;18.50;99.90;;;;;;4990275;28;20133;-67
2022/05/07 11:47:22;;;;;;;20.35;13.27;;;18.90;99.90;;;;;;4975261;28;20055;-66
2022/05/07 11:50:06;;;;;;;14.98;10.77;;;19.20;99.90;;;;;;4972425;28;20534;-66
2022/05/07 11:52:32;;;;;;;11.13;7.75;;;19.40;99.90;;;;;;4989923;28;20097;-66
2022/05/07 11:55:05;;;;;;;11.60;7.65;;;19.60;99.90;;;;;;4972468;28;20144;-66
2022/05/07 11:57:32;;;;;;;12.55;7.60;;;19.40;99.90;;;;;;4988350;28;20108;-66
2022/05/07 12:00:13;;;;;;;12.85;8.40;;;19.30;99.90;;;;;;4973826;28;20042;-66
2022/05/07 12:03:02;;;;;;;10.75;8.00;;;19.10;99.90;;;;;;4996073;28;20048;-66
2022/05/07 12:05:42;;;;;;;12.10;8.20;;;19.00;99.90;;;;;;4993563;28;20050;-66
2022/05/07 12:08:12;;;;;;;12.07;8.68;;;19.10;99.90;;;;;;5011216;28;20049;-67
2022/05/07 12:10:37;;;;;;;12.82;8.32;;;19.10;99.90;;;;;;5011511;28;20125;-67
2022/05/07 12:13:03;;;;;;;11.23;8.30;;;19.10;99.90;;;;;;4990420;28;20054;-67
2022/05/07 12:18:14;;;;;;;13.07;8.90;;;19.30;99.90;;;;;;5008541;28;20054;-67
2022/05/07 12:20:39;;;;;;;14.15;8.40;;;19.40;99.90;;;;;;5009777;28;20380;-66
2022/05/07 12:31:18;;;;;;;12.95;9.25;;;19.30;99.90;;;;;;5009437;28;20451;-67
2022/05/07 12:33:43;;;;;;;14.82;10.23;;;19.30;99.90;;;;;;5008506;28;20061;-67
2022/05/07 12:36:09;;;;;;;16.40;10.63;;;19.40;99.90;;;;;;5008487;28;20053;-67
2022/05/07 12:38:35;;;;;;;15.68;10.18;;;19.40;99.90;;;;;;5008456;28;20097;-67
2022/05/07 12:41:01;;;;;;;18.40;10.63;;;19.20;99.90;;;;;;4985040;28;20122;-67
2022/05/07 12:43:28;;;;;;;15.93;11.05;;;19.10;99.90;;;;;;4988874;28;20050;-66
2022/05/07 12:45:53;;;;;;;15.50;11.60;;;19.20;99.90;;;;;;4989671;28;20047;-67
2022/05/07 12:48:19;;;;;;;18.15;12.70;;;19.50;99.90;;;;;;4987984;28;20050;-66
2022/05/07 12:50:46;;;;;;;21.27;13.80;;;19.80;99.90;;;;;;4990716;28;20501;-67
2022/05/07 12:53:14;;;;;;;23.40;14.60;;;20.00;99.90;;;;;;4968825;28;20153;-67
2022/05/07 12:55:43;;;;;;;21.33;14.00;;;20.20;99.90;;;;;;4990758;28;20490;-67
2022/05/07 12:58:11;;;;;;;21.13;14.73;;;20.30;99.90;;;;;;5007251;28;20057;-67
2022/05/07 13:00:38;;;;;;;21.45;14.77;;;20.50;99.90;;;;;;4991048;28;20075;-67
2022/05/07 13:03:04;;;;;;;22.70;15.60;;;20.70;99.90;;;;;;4990559;28;20121;-67
2022/05/07 13:05:30;;;;;;;21.48;15.38;;;21.00;99.90;;;;;;5008094;28;20474;-66
2022/05/07 13:07:56;;;;;;;22.67;14.85;;;21.00;99.90;;;;;;5007438;28;20079;-67
2022/05/07 13:10:23;;;;;;;20.67;14.38;;;21.00;99.90;;;;;;4990139;28;20418;-66